sensor_id;sensor_type;location;lat;lon;timestamp;pressure;altitude;pressure_sealevel;temperature;humidity
23589;BME280;11972;48.078;11.876;2024-02-21T00:00:54;96502.00;;;3.42;100.00
23589;BME280;11972;48.078;11.876;2024-02-21T00:04:54;96497.38;;;3.46;100.00
23589;BME280;11972;48.078;11.876;2024-02-21T00:08:54;96491.81;;;3.51;100.00
23589;BME280;11972;48.078;11.876;2024-02-21T00:12:55;96484.56;;;3.54;100.00
23589;BME280;11972;48.078;11.876;2024-02-21T00:16:55;96482.44;;;3.59;100.00
23589;BME280;11972;48.078;11.876;2024-02-21T00:20:55;96483.75;;;3.65;100.00
23589;BME280;11972;48.078;11.876;2024-02-21T00:24:56;96474.03;;;3.67;100.00
23589;BME280;11972;48.078;11.876;2024-02-21T00:28:58;96474.63;;;3.70;100.00
23589;BME280;11972;48.078;11.876;2024-02-21T00:32:58;96472.50;;;3.76;100.00
23589;BME280;11972;48.078;11.876;2024-02-21T00:36:58;96462.63;;;3.79;100.00
23589;BME280;11972;48.078;11.876;2024-02-21T00:40:59;96467.59;;;3.82;100.00
23589;BME280;11972;48.078;11.876;2024-02-21T00:44:59;96458.09;;;3.81;100.00
23589;BME280;11972;48.078;11.876;2024-02-21T00:48:59;96453.84;;;3.80;100.00
23589;BME280;11972;48.078;11.876;2024-02-21T00:53:00;96450.63;;;3.77;100.00
23589;BME280;11972;48.078;11.876;2024-02-21T00:57:00;96447.63;;;3.70;100.00
23589;BME280;11972;48.078;11.876;2024-02-21T01:01:01;96443.59;;;3.55;100.00
23589;BME280;11972;48.078;11.876;2024-02-21T01:05:02;96439.75;;;3.36;100.00
23589;BME280;11972;48.078;11.876;2024-02-21T01:09:02;96432.25;;;3.32;100.00
23589;BME280;11972;48.078;11.876;2024-02-21T01:13:03;96443.78;;;3.40;100.00
23589;BME280;11972;48.078;11.876;2024-02-21T01:17:03;96444.06;;;3.48;100.00
23589;BME280;11972;48.078;11.876;2024-02-21T01:21:06;96445.03;;;3.59;100.00
23589;BME280;11972;48.078;11.876;2024-02-21T01:25:07;96436.72;;;3.65;100.00
23589;BME280;11972;48.078;11.876;2024-02-21T01:29:08;96428.41;;;3.71;100.00
23589;BME280;11972;48.078;11.876;2024-02-21T01:33:08;96417.59;;;3.76;100.00
23589;BME280;11972;48.078;11.876;2024-02-21T01:37:09;96409.63;;;3.77;100.00
23589;BME280;11972;48.078;11.876;2024-02-21T01:41:10;96406.06;;;3.78;100.00
23589;BME280;11972;48.078;11.876;2024-02-21T01:45:10;96392.78;;;3.81;100.00
23589;BME280;11972;48.078;11.876;2024-02-21T01:49:10;96393.72;;;3.80;100.00
23589;BME280;11972;48.078;11.876;2024-02-21T01:53:16;96388.03;;;3.75;100.00
23589;BME280;11972;48.078;11.876;2024-02-21T01:57:18;96388.50;;;3.69;100.00
23589;BME280;11972;48.078;11.876;2024-02-21T02:01:19;96387.28;;;3.62;100.00
23589;BME280;11972;48.078;11.876;2024-02-21T02:05:19;96385.66;;;3.61;100.00
23589;BME280;11972;48.078;11.876;2024-02-21T02:09:21;96381.00;;;3.64;100.00
23589;BME280;11972;48.078;11.876;2024-02-21T02:13:21;96372.81;;;3.69;100.00
23589;BME280;11972;48.078;11.876;2024-02-21T02:17:21;96361.06;;;3.75;100.00
23589;BME280;11972;48.078;11.876;2024-02-21T02:21:32;96370.22;;;3.80;100.00
23589;BME280;11972;48.078;11.876;2024-02-21T02:25:33;96358.19;;;3.89;100.00
23589;BME280;11972;48.078;11.876;2024-02-21T02:29:33;96365.53;;;3.95;100.00
23589;BME280;11972;48.078;11.876;2024-02-21T02:33:33;96352.97;;;4.00;100.00
23589;BME280;11972;48.078;11.876;2024-02-21T02:37:34;96335.38;;;4.02;100.00
23589;BME280;11972;48.078;11.876;2024-02-21T02:41:37;96331.91;;;4.02;100.00
23589;BME280;11972;48.078;11.876;2024-02-21T02:45:38;96319.81;;;4.01;100.00
23589;BME280;11972;48.078;11.876;2024-02-21T02:49:38;96323.84;;;4.05;100.00
23589;BME280;11972;48.078;11.876;2024-02-21T02:53:38;96311.22;;;4.10;100.00
23589;BME280;11972;48.078;11.876;2024-02-21T02:57:39;96307.53;;;4.12;100.00
23589;BME280;11972;48.078;11.876;2024-02-21T03:01:41;96302.91;;;4.16;100.00
23589;BME280;11972;48.078;11.876;2024-02-21T03:05:42;96304.56;;;4.17;100.00
23589;BME280;11972;48.078;11.876;2024-02-21T03:09:42;96298.59;;;4.15;100.00
23589;BME280;11972;48.078;11.876;2024-02-21T03:13:45;96292.69;;;4.13;100.00
23589;BME280;11972;48.078;11.876;2024-02-21T03:17:46;96290.91;;;4.13;100.00
23589;BME280;11972;48.078;11.876;2024-02-21T03:21:46;96287.44;;;4.13;100.00
23589;BME280;11972;48.078;11.876;2024-02-21T03:25:46;96285.53;;;4.15;100.00
23589;BME280;11972;48.078;11.876;2024-02-21T03:29:47;96279.22;;;4.17;100.00
23589;BME280;11972;48.078;11.876;2024-02-21T03:33:47;96292.66;;;4.24;100.00
23589;BME280;11972;48.078;11.876;2024-02-21T03:37:48;96300.94;;;4.29;100.00
23589;BME280;11972;48.078;11.876;2024-02-21T03:41:48;96291.91;;;4.33;100.00
23589;BME280;11972;48.078;11.876;2024-02-21T03:45:48;96284.63;;;4.37;100.00
23589;BME280;11972;48.078;11.876;2024-02-21T03:49:49;96289.03;;;4.36;100.00
23589;BME280;11972;48.078;11.876;2024-02-21T03:53:50;96283.81;;;4.36;100.00
23589;BME280;11972;48.078;11.876;2024-02-21T03:57:50;96283.81;;;4.36;100.00
23589;BME280;11972;48.078;11.876;2024-02-21T04:01:53;96286.44;;;4.36;100.00
23589;BME280;11972;48.078;11.876;2024-02-21T04:05:54;96276.91;;;4.35;100.00
23589;BME280;11972;48.078;11.876;2024-02-21T04:09:54;96270.84;;;4.35;100.00
23589;BME280;11972;48.078;11.876;2024-02-21T04:13:55;96274.66;;;4.31;100.00
23589;BME280;11972;48.078;11.876;2024-02-21T04:17:55;96265.28;;;4.28;100.00
23589;BME280;11972;48.078;11.876;2024-02-21T04:21:55;96262.69;;;4.28;100.00
23589;BME280;11972;48.078;11.876;2024-02-21T04:25:55;96255.66;;;4.29;100.00
23589;BME280;11972;48.078;11.876;2024-02-21T04:29:56;96254.84;;;4.28;100.00
23589;BME280;11972;48.078;11.876;2024-02-21T04:33:56;96255.06;;;4.25;100.00
23589;BME280;11972;48.078;11.876;2024-02-21T04:37:56;96242.63;;;4.17;100.00
23589;BME280;11972;48.078;11.876;2024-02-21T04:41:57;96240.16;;;4.16;100.00
23589;BME280;11972;48.078;11.876;2024-02-21T04:45:57;96241.81;;;4.17;100.00
23589;BME280;11972;48.078;11.876;2024-02-21T04:49:57;96240.16;;;4.16;100.00
23589;BME280;11972;48.078;11.876;2024-02-21T04:53:58;96232.53;;;4.13;100.00
23589;BME280;11972;48.078;11.876;2024-02-21T04:57:58;96224.59;;;4.03;100.00
23589;BME280;11972;48.078;11.876;2024-02-21T05:01:58;96218.13;;;3.86;100.00
23589;BME280;11972;48.078;11.876;2024-02-21T05:05:59;96214.63;;;3.65;100.00
23589;BME280;11972;48.078;11.876;2024-02-21T05:09:59;96213.59;;;3.45;100.00
23589;BME280;11972;48.078;11.876;2024-02-21T05:14:00;96207.59;;;3.22;100.00
23589;BME280;11972;48.078;11.876;2024-02-21T05:18:00;96201.31;;;3.02;100.00
23589;BME280;11972;48.078;11.876;2024-02-21T05:22:01;96200.25;;;2.82;100.00
23589;BME280;11972;48.078;11.876;2024-02-21T05:26:01;96194.53;;;2.66;100.00
23589;BME280;11972;48.078;11.876;2024-02-21T05:30:02;96188.72;;;2.51;100.00
23589;BME280;11972;48.078;11.876;2024-02-21T05:34:02;96182.88;;;2.36;100.00
23589;BME280;11972;48.078;11.876;2024-02-21T05:38:04;96176.78;;;2.13;100.00
23589;BME280;11972;48.078;11.876;2024-02-21T05:42:11;96182.28;;;1.97;100.00
23589;BME280;11972;48.078;11.876;2024-02-21T05:46:11;96185.47;;;1.90;100.00
23589;BME280;11972;48.078;11.876;2024-02-21T05:50:13;96176.31;;;1.84;100.00
23589;BME280;11972;48.078;11.876;2024-02-21T05:54:13;96166.16;;;1.81;100.00
23589;BME280;11972;48.078;11.876;2024-02-21T05:58:13;96169.94;;;1.88;100.00
23589;BME280;11972;48.078;11.876;2024-02-21T06:02:14;96166.66;;;1.97;100.00
23589;BME280;11972;48.078;11.876;2024-02-21T06:06:14;96160.78;;;2.07;100.00
23589;BME280;11972;48.078;11.876;2024-02-21T06:10:14;96159.34;;;2.14;100.00
23589;BME280;11972;48.078;11.876;2024-02-21T06:14:15;96161.28;;;2.23;100.00
23589;BME280;11972;48.078;11.876;2024-02-21T06:18:19;96153.25;;;2.37;100.00
23589;BME280;11972;48.078;11.876;2024-02-21T06:22:20;96159.56;;;2.57;100.00
23589;BME280;11972;48.078;11.876;2024-02-21T06:26:20;96152.56;;;2.69;100.00
23589;BME280;11972;48.078;11.876;2024-02-21T06:30:20;96156.00;;;2.69;100.00
23589;BME280;11972;48.078;11.876;2024-02-21T06:34:21;96167.72;;;2.53;100.00
23589;BME280;11972;48.078;11.876;2024-02-21T06:38:21;96164.41;;;2.39;100.00
23589;BME280;11972;48.078;11.876;2024-02-21T06:42:24;96153.72;;;2.31;100.00
23589;BME280;11972;48.078;11.876;2024-02-21T06:46:29;96158.34;;;2.28;100.00
23589;BME280;11972;48.078;11.876;2024-02-21T06:50:29;96153.47;;;2.34;100.00
23589;BME280;11972;48.078;11.876;2024-02-21T06:54:30;96156.94;;;2.57;100.00
23589;BME280;11972;48.078;11.876;2024-02-21T06:58:31;96159.31;;;2.94;100.00
23589;BME280;11972;48.078;11.876;2024-02-21T07:02:31;96170.91;;;3.35;100.00
23589;BME280;11972;48.078;11.876;2024-02-21T07:06:31;96179.69;;;3.77;100.00
23589;BME280;11972;48.078;11.876;2024-02-21T07:10:31;96158.38;;;4.14;100.00
23589;BME280;11972;48.078;11.876;2024-02-21T07:14:32;96159.66;;;4.40;100.00
23589;BME280;11972;48.078;11.876;2024-02-21T07:18:33;96152.19;;;4.57;100.00
23589;BME280;11972;48.078;11.876;2024-02-21T07:22:33;96147.56;;;4.70;100.00
23589;BME280;11972;48.078;11.876;2024-02-21T07:26:34;96145.94;;;4.79;100.00
23589;BME280;11972;48.078;11.876;2024-02-21T07:30:34;96139.91;;;4.88;100.00
23589;BME280;11972;48.078;11.876;2024-02-21T07:34:35;96140.22;;;4.94;100.00
23589;BME280;11972;48.078;11.876;2024-02-21T07:38:35;96133.09;;;5.06;100.00
23589;BME280;11972;48.078;11.876;2024-02-21T07:42:35;96140.25;;;5.14;100.00
23589;BME280;11972;48.078;11.876;2024-02-21T07:46:36;96124.59;;;5.33;100.00
23589;BME280;11972;48.078;11.876;2024-02-21T07:50:36;96120.38;;;5.61;100.00
23589;BME280;11972;48.078;11.876;2024-02-21T07:54:37;96112.78;;;5.78;100.00
23589;BME280;11972;48.078;11.876;2024-02-21T07:58:37;96104.34;;;5.84;100.00
23589;BME280;11972;48.078;11.876;2024-02-21T08:02:38;96096.09;;;5.79;100.00
23589;BME280;11972;48.078;11.876;2024-02-21T08:06:38;96089.63;;;5.92;100.00
23589;BME280;11972;48.078;11.876;2024-02-21T08:10:39;96074.69;;;6.12;100.00
23589;BME280;11972;48.078;11.876;2024-02-21T08:14:39;96058.94;;;6.22;100.00
23589;BME280;11972;48.078;11.876;2024-02-21T08:18:40;96039.22;;;6.18;100.00
23589;BME280;11972;48.078;11.876;2024-02-21T08:22:40;96029.00;;;6.15;100.00
23589;BME280;11972;48.078;11.876;2024-02-21T08:26:41;96009.66;;;6.16;100.00
23589;BME280;11972;48.078;11.876;2024-02-21T08:30:42;96011.19;;;6.09;100.00
23589;BME280;11972;48.078;11.876;2024-02-21T08:34:47;95994.09;;;6.05;100.00
23589;BME280;11972;48.078;11.876;2024-02-21T08:38:48;95993.25;;;6.04;100.00
23589;BME280;11972;48.078;11.876;2024-02-21T08:42:48;96002.94;;;6.04;100.00
23589;BME280;11972;48.078;11.876;2024-02-21T08:46:49;95992.81;;;6.18;100.00
23589;BME280;11972;48.078;11.876;2024-02-21T08:50:50;95985.09;;;6.44;100.00
23589;BME280;11972;48.078;11.876;2024-02-21T08:54:50;95976.25;;;6.73;100.00
23589;BME280;11972;48.078;11.876;2024-02-21T08:58:53;95985.16;;;7.08;100.00
23589;BME280;11972;48.078;11.876;2024-02-21T09:02:53;95983.13;;;7.37;100.00
23589;BME280;11972;48.078;11.876;2024-02-21T09:06:56;95970.66;;;7.57;100.00
23589;BME280;11972;48.078;11.876;2024-02-21T09:10:56;95972.25;;;7.76;100.00
23589;BME280;11972;48.078;11.876;2024-02-21T09:14:56;95972.19;;;7.94;100.00
23589;BME280;11972;48.078;11.876;2024-02-21T09:18:57;95969.53;;;8.12;100.00
23589;BME280;11972;48.078;11.876;2024-02-21T09:22:57;95971.16;;;8.39;100.00
23589;BME280;11972;48.078;11.876;2024-02-21T09:26:58;95967.50;;;8.66;100.00
23589;BME280;11972;48.078;11.876;2024-02-21T09:30:58;95968.19;;;8.76;100.00
23589;BME280;11972;48.078;11.876;2024-02-21T09:34:58;95972.00;;;8.82;100.00
23589;BME280;11972;48.078;11.876;2024-02-21T09:38:59;95959.69;;;8.90;100.00
23589;BME280;11972;48.078;11.876;2024-02-21T09:43:03;95956.91;;;9.08;100.00
23589;BME280;11972;48.078;11.876;2024-02-21T09:47:35;95954.78;;;9.20;100.00
23589;BME280;11972;48.078;11.876;2024-02-21T09:51:32;95938.97;;;9.28;100.00
23589;BME280;11972;48.078;11.876;2024-02-21T09:55:35;95942.13;;;9.48;100.00
23589;BME280;11972;48.078;11.876;2024-02-21T09:59:35;95930.53;;;9.82;100.00
23589;BME280;11972;48.078;11.876;2024-02-21T10:03:35;95925.69;;;10.18;100.00
23589;BME280;11972;48.078;11.876;2024-02-21T10:07:36;95918.75;;;10.33;100.00
23589;BME280;11972;48.078;11.876;2024-02-21T10:11:36;95920.84;;;10.46;100.00
23589;BME280;11972;48.078;11.876;2024-02-21T10:15:37;95925.69;;;10.65;100.00
23589;BME280;11972;48.078;11.876;2024-02-21T10:19:37;95918.56;;;10.74;100.00
23589;BME280;11972;48.078;11.876;2024-02-21T10:23:42;95909.91;;;10.80;100.00
23589;BME280;11972;48.078;11.876;2024-02-21T10:27:43;95897.38;;;10.82;100.00
23589;BME280;11972;48.078;11.876;2024-02-21T10:31:43;95897.00;;;10.85;100.00
23589;BME280;11972;48.078;11.876;2024-02-21T10:35:44;95883.25;;;10.90;100.00
23589;BME280;11972;48.078;11.876;2024-02-21T10:39:44;95886.84;;;10.97;100.00
23589;BME280;11972;48.078;11.876;2024-02-21T10:43:49;95885.59;;;11.16;100.00
23589;BME280;11972;48.078;11.876;2024-02-21T10:47:55;95885.81;;;11.29;100.00
23589;BME280;11972;48.078;11.876;2024-02-21T10:52:06;95872.16;;;11.40;100.00
23589;BME280;11972;48.078;11.876;2024-02-21T10:56:22;95860.16;;;11.67;100.00
23589;BME280;11972;48.078;11.876;2024-02-21T11:00:25;95847.91;;;11.89;100.00
23589;BME280;11972;48.078;11.876;2024-02-21T11:04:30;95831.25;;;12.25;100.00
23589;BME280;11972;48.078;11.876;2024-02-21T11:08:32;95818.59;;;12.57;100.00
23589;BME280;11972;48.078;11.876;2024-02-21T11:12:33;95809.22;;;12.76;100.00
23589;BME280;11972;48.078;11.876;2024-02-21T11:20:38;95785.00;;;13.07;100.00
23589;BME280;11972;48.078;11.876;2024-02-21T11:24:39;95771.31;;;13.25;100.00
23589;BME280;11972;48.078;11.876;2024-02-21T11:28:39;95765.19;;;13.24;100.00
23589;BME280;11972;48.078;11.876;2024-02-21T11:32:40;95761.63;;;13.38;100.00
23589;BME280;11972;48.078;11.876;2024-02-21T11:36:51;95739.72;;;13.58;100.00
23589;BME280;11972;48.078;11.876;2024-02-21T11:40:51;95736.16;;;13.79;100.00
23589;BME280;11972;48.078;11.876;2024-02-21T11:44:53;95736.16;;;13.85;100.00
23589;BME280;11972;48.078;11.876;2024-02-21T11:48:54;95723.56;;;14.01;100.00
23589;BME280;11972;48.078;11.876;2024-02-21T11:52:54;95712.22;;;14.20;100.00
23589;BME280;11972;48.078;11.876;2024-02-21T11:56:55;95706.53;;;14.36;100.00
23589;BME280;11972;48.078;11.876;2024-02-21T12:00:56;95702.03;;;14.37;100.00
23589;BME280;11972;48.078;11.876;2024-02-21T12:04:56;95693.84;;;14.38;100.00
23589;BME280;11972;48.078;11.876;2024-02-21T12:08:58;95692.19;;;14.44;100.00
23589;BME280;11972;48.078;11.876;2024-02-21T12:13:05;95684.84;;;14.39;100.00
23589;BME280;11972;48.078;11.876;2024-02-21T12:17:07;95680.75;;;14.37;100.00
23589;BME280;11972;48.078;11.876;2024-02-21T12:21:07;95674.22;;;14.33;100.00
23589;BME280;11972;48.078;11.876;2024-02-21T12:25:22;95662.59;;;14.40;100.00
23589;BME280;11972;48.078;11.876;2024-02-21T12:29:27;95655.84;;;14.45;100.00
23589;BME280;11972;48.078;11.876;2024-02-21T12:33:28;95649.69;;;14.24;100.00
23589;BME280;11972;48.078;11.876;2024-02-21T12:37:29;95640.69;;;14.25;100.00
23589;BME280;11972;48.078;11.876;2024-02-21T12:41:29;95629.22;;;14.31;100.00
23589;BME280;11972;48.078;11.876;2024-02-21T12:45:30;95621.47;;;14.23;100.00
23589;BME280;11972;48.078;11.876;2024-02-21T12:49:30;95618.81;;;14.17;100.00
23589;BME280;11972;48.078;11.876;2024-02-21T12:53:30;95613.69;;;14.08;100.00
23589;BME280;11972;48.078;11.876;2024-02-21T12:57:31;95594.88;;;14.10;100.00
23589;BME280;11972;48.078;11.876;2024-02-21T13:01:31;95584.06;;;14.18;100.00
23589;BME280;11972;48.078;11.876;2024-02-21T13:05:32;95572.66;;;14.24;100.00
23589;BME280;11972;48.078;11.876;2024-02-21T13:09:32;95568.31;;;14.23;100.00
23589;BME280;11972;48.078;11.876;2024-02-21T13:13:33;95560.16;;;14.18;100.00
23589;BME280;11972;48.078;11.876;2024-02-21T13:17:33;95552.59;;;14.08;100.00
23589;BME280;11972;48.078;11.876;2024-02-21T13:21:34;95539.69;;;13.99;100.00
23589;BME280;11972;48.078;11.876;2024-02-21T13:25:35;95531.94;;;13.97;100.00
23589;BME280;11972;48.078;11.876;2024-02-21T13:29:35;95532.38;;;14.07;100.00
23589;BME280;11972;48.078;11.876;2024-02-21T13:33:35;95529.09;;;13.99;100.00
23589;BME280;11972;48.078;11.876;2024-02-21T13:37:37;95515.22;;;14.03;100.00
23589;BME280;11972;48.078;11.876;2024-02-21T13:41:37;95510.09;;;14.15;100.00
23589;BME280;11972;48.078;11.876;2024-02-21T13:45:38;95506.41;;;14.23;100.00
23589;BME280;11972;48.078;11.876;2024-02-21T13:49:38;95498.66;;;14.21;100.00
23589;BME280;11972;48.078;11.876;2024-02-21T13:53:39;95489.28;;;14.12;100.00
23589;BME280;11972;48.078;11.876;2024-02-21T13:57:39;95485.78;;;14.05;100.00
23589;BME280;11972;48.078;11.876;2024-02-21T14:01:40;95471.47;;;14.06;100.00
23589;BME280;11972;48.078;11.876;2024-02-21T14:05:40;95470.44;;;14.07;100.00
23589;BME280;11972;48.078;11.876;2024-02-21T14:09:41;95458.03;;;14.07;100.00
23589;BME280;11972;48.078;11.876;2024-02-21T14:13:41;95447.78;;;13.98;100.00
23589;BME280;11972;48.078;11.876;2024-02-21T14:17:42;95446.16;;;13.90;100.00
23589;BME280;11972;48.078;11.876;2024-02-21T14:21:42;95443.94;;;13.87;100.00
23589;BME280;11972;48.078;11.876;2024-02-21T14:25:43;95443.72;;;13.88;100.00
23589;BME280;11972;48.078;11.876;2024-02-21T14:29:43;95439.41;;;13.81;100.00
23589;BME280;11972;48.078;11.876;2024-02-21T14:33:43;95432.28;;;13.75;100.00
23589;BME280;11972;48.078;11.876;2024-02-21T14:37:46;95422.69;;;13.67;100.00
23589;BME280;11972;48.078;11.876;2024-02-21T14:41:48;95416.34;;;13.55;100.00
23589;BME280;11972;48.078;11.876;2024-02-21T14:45:49;95411.44;;;13.38;100.00
23589;BME280;11972;48.078;11.876;2024-02-21T14:49:49;95408.13;;;13.23;100.00
23589;BME280;11972;48.078;11.876;2024-02-21T14:53:50;95403.16;;;13.07;100.00
23589;BME280;11972;48.078;11.876;2024-02-21T14:57:50;95401.50;;;12.93;100.00
23589;BME280;11972;48.078;11.876;2024-02-21T15:01:50;95397.59;;;12.82;100.00
23589;BME280;11972;48.078;11.876;2024-02-21T15:05:51;95392.47;;;12.74;100.00
23589;BME280;11972;48.078;11.876;2024-02-21T15:09:51;95383.88;;;12.65;100.00
23589;BME280;11972;48.078;11.876;2024-02-21T15:13:51;95391.38;;;12.55;100.00
23589;BME280;11972;48.078;11.876;2024-02-21T15:17:52;95395.41;;;12.44;100.00
23589;BME280;11972;48.078;11.876;2024-02-21T15:21:52;95396.78;;;12.33;100.00
23589;BME280;11972;48.078;11.876;2024-02-21T15:25:53;95393.84;;;12.22;100.00
23589;BME280;11972;48.078;11.876;2024-02-21T15:29:53;95390.91;;;12.03;100.00
23589;BME280;11972;48.078;11.876;2024-02-21T15:33:54;95397.53;;;11.86;100.00
23589;BME280;11972;48.078;11.876;2024-02-21T15:37:55;95399.59;;;11.69;100.00
23589;BME280;11972;48.078;11.876;2024-02-21T15:41:56;95383.56;;;11.49;100.00
23589;BME280;11972;48.078;11.876;2024-02-21T15:45:56;95388.69;;;11.29;100.00
23589;BME280;11972;48.078;11.876;2024-02-21T15:49:57;95389.72;;;11.07;100.00
23589;BME280;11972;48.078;11.876;2024-02-21T15:53:59;95381.75;;;10.85;100.00
23589;BME280;11972;48.078;11.876;2024-02-21T15:57:59;95371.97;;;10.64;100.00
23589;BME280;11972;48.078;11.876;2024-02-21T16:01:59;95368.28;;;10.44;100.00
23589;BME280;11972;48.078;11.876;2024-02-21T16:06:00;95366.34;;;10.23;100.00
23589;BME280;11972;48.078;11.876;2024-02-21T16:10:01;95369.75;;;10.02;100.00
23589;BME280;11972;48.078;11.876;2024-02-21T16:14:01;95372.56;;;9.86;100.00
23589;BME280;11972;48.078;11.876;2024-02-21T16:18:02;95362.00;;;9.71;100.00
23589;BME280;11972;48.078;11.876;2024-02-21T16:22:03;95369.06;;;9.56;100.00
23589;BME280;11972;48.078;11.876;2024-02-21T16:26:04;95358.34;;;9.42;100.00
23589;BME280;11972;48.078;11.876;2024-02-21T16:30:05;95354.56;;;9.37;100.00
23589;BME280;11972;48.078;11.876;2024-02-21T16:34:07;95352.81;;;9.29;100.00
23589;BME280;11972;48.078;11.876;2024-02-21T16:38:08;95349.44;;;9.20;100.00
23589;BME280;11972;48.078;11.876;2024-02-21T16:42:09;95341.13;;;9.09;100.00
23589;BME280;11972;48.078;11.876;2024-02-21T16:46:10;95347.66;;;8.98;100.00
23589;BME280;11972;48.078;11.876;2024-02-21T16:50:11;95348.06;;;8.87;100.00
23589;BME280;11972;48.078;11.876;2024-02-21T16:54:11;95353.09;;;8.74;100.00
23589;BME280;11972;48.078;11.876;2024-02-21T16:58:11;95359.75;;;8.61;100.00
23589;BME280;11972;48.078;11.876;2024-02-21T17:02:13;95362.78;;;8.50;100.00
23589;BME280;11972;48.078;11.876;2024-02-21T17:06:13;95362.66;;;8.43;100.00
23589;BME280;11972;48.078;11.876;2024-02-21T17:10:14;95369.72;;;8.35;100.00
23589;BME280;11972;48.078;11.876;2024-02-21T17:14:14;95357.78;;;8.24;100.00
23589;BME280;11972;48.078;11.876;2024-02-21T17:18:15;95364.41;;;8.12;100.00
23589;BME280;11972;48.078;11.876;2024-02-21T17:22:15;95355.25;;;8.00;100.00
23589;BME280;11972;48.078;11.876;2024-02-21T17:26:16;95354.63;;;7.89;100.00
23589;BME280;11972;48.078;11.876;2024-02-21T17:30:16;95350.56;;;7.79;100.00
23589;BME280;11972;48.078;11.876;2024-02-21T17:34:17;95356.88;;;7.61;100.00
23589;BME280;11972;48.078;11.876;2024-02-21T17:38:17;95344.59;;;7.37;100.00
23589;BME280;11972;48.078;11.876;2024-02-21T17:42:19;95341.97;;;7.13;100.00
23589;BME280;11972;48.078;11.876;2024-02-21T17:46:19;95342.63;;;6.90;100.00
23589;BME280;11972;48.078;11.876;2024-02-21T17:50:20;95334.41;;;6.69;100.00
23589;BME280;11972;48.078;11.876;2024-02-21T17:54:21;95338.50;;;6.55;100.00
23589;BME280;11972;48.078;11.876;2024-02-21T17:58:22;95329.63;;;6.40;100.00
23589;BME280;11972;48.078;11.876;2024-02-21T18:02:23;95331.56;;;6.21;100.00
23589;BME280;11972;48.078;11.876;2024-02-21T18:06:23;95323.47;;;6.07;100.00
23589;BME280;11972;48.078;11.876;2024-02-21T18:10:27;95327.69;;;6.00;100.00
23589;BME280;11972;48.078;11.876;2024-02-21T18:14:31;95322.56;;;5.90;100.00
23589;BME280;11972;48.078;11.876;2024-02-21T18:18:31;95317.75;;;5.77;100.00
23589;BME280;11972;48.078;11.876;2024-02-21T18:22:32;95304.94;;;5.66;100.00
23589;BME280;11972;48.078;11.876;2024-02-21T18:26:32;95299.66;;;5.58;100.00
23589;BME280;11972;48.078;11.876;2024-02-21T18:30:32;95300.13;;;5.53;100.00
23589;BME280;11972;48.078;11.876;2024-02-21T18:34:33;95298.81;;;5.49;100.00
23589;BME280;11972;48.078;11.876;2024-02-21T18:38:34;95296.34;;;5.47;100.00
23589;BME280;11972;48.078;11.876;2024-02-21T18:42:34;95287.19;;;5.52;100.00
23589;BME280;11972;48.078;11.876;2024-02-21T18:46:35;95287.63;;;5.47;100.00
23589;BME280;11972;48.078;11.876;2024-02-21T18:50:36;95283.91;;;5.50;100.00
23589;BME280;11972;48.078;11.876;2024-02-21T18:54:39;95278.34;;;5.53;100.00
23589;BME280;11972;48.078;11.876;2024-02-21T18:58:41;95270.66;;;5.59;100.00
23589;BME280;11972;48.078;11.876;2024-02-21T19:02:42;95266.31;;;5.68;100.00
23589;BME280;11972;48.078;11.876;2024-02-21T19:06:43;95265.66;;;5.74;100.00
23589;BME280;11972;48.078;11.876;2024-02-21T19:10:43;95259.28;;;5.77;100.00
23589;BME280;11972;48.078;11.876;2024-02-21T19:14:44;95255.50;;;5.79;100.00
23589;BME280;11972;48.078;11.876;2024-02-21T19:18:44;95248.47;;;5.80;100.00
23589;BME280;11972;48.078;11.876;2024-02-21T19:22:46;95235.84;;;5.75;100.00
23589;BME280;11972;48.078;11.876;2024-02-21T19:26:47;95234.53;;;5.71;100.00
23589;BME280;11972;48.078;11.876;2024-02-21T19:30:47;95234.19;;;5.66;100.00
23589;BME280;11972;48.078;11.876;2024-02-21T19:34:47;95234.84;;;5.60;100.00
23589;BME280;11972;48.078;11.876;2024-02-21T19:38:48;95227.59;;;5.54;100.00
23589;BME280;11972;48.078;11.876;2024-02-21T19:42:49;95225.75;;;5.46;100.00
23589;BME280;11972;48.078;11.876;2024-02-21T19:46:50;95217.38;;;5.42;100.00
23589;BME280;11972;48.078;11.876;2024-02-21T19:50:52;95211.81;;;5.37;100.00
23589;BME280;11972;48.078;11.876;2024-02-21T19:54:54;95210.19;;;5.36;100.00
23589;BME280;11972;48.078;11.876;2024-02-21T19:58:54;95210.47;;;5.33;100.00
23589;BME280;11972;48.078;11.876;2024-02-21T20:02:56;95203.63;;;5.32;100.00
23589;BME280;11972;48.078;11.876;2024-02-21T20:06:56;95194.47;;;5.36;100.00
23589;BME280;11972;48.078;11.876;2024-02-21T20:10:56;95192.00;;;5.43;100.00
23589;BME280;11972;48.078;11.876;2024-02-21T20:14:57;95185.00;;;5.43;100.00
23589;BME280;11972;48.078;11.876;2024-02-21T20:18:57;95175.16;;;5.45;100.00
23589;BME280;11972;48.078;11.876;2024-02-21T20:22:58;95176.00;;;5.46;100.00
23589;BME280;11972;48.078;11.876;2024-02-21T20:26:59;95174.19;;;5.46;100.00
23589;BME280;11972;48.078;11.876;2024-02-21T20:31:01;95171.94;;;5.52;100.00
23589;BME280;11972;48.078;11.876;2024-02-21T20:35:04;95169.66;;;5.57;100.00
23589;BME280;11972;48.078;11.876;2024-02-21T20:39:06;95165.25;;;5.65;100.00
23589;BME280;11972;48.078;11.876;2024-02-21T20:43:09;95162.63;;;5.73;100.00
23589;BME280;11972;48.078;11.876;2024-02-21T20:47:09;95157.41;;;5.82;100.00
23589;BME280;11972;48.078;11.876;2024-02-21T20:51:10;95155.94;;;5.87;100.00
23589;BME280;11972;48.078;11.876;2024-02-21T20:55:11;95153.66;;;5.92;100.00
23589;BME280;11972;48.078;11.876;2024-02-21T20:59:15;95155.34;;;6.02;100.00